Time;durP1;ratioP1;P1;durP2;ratioP2;P2;SDS_P1;SDS_P2;PMS_P1;PMS_P2;Temp;Humidity;BMP_temperature;BMP_pressure;BME280_temperature;BME280_humidity;BME280_pressure;Samples;Min_cycle;Max_cycle;Signal;HPM_P1;HPM_P2
2023/07/12 00:00:47;;;;;;;;;;;;;;;24.16;65.31;100818.31;7396857;19;1134;-42
2023/07/12 00:03:16;;;;;;;;;;;;;;;24.18;65.28;100810.88;7396822;19;1258;-42
2023/07/12 00:05:44;;;;;;;;;;;;;;;24.27;65.09;100809.00;7397888;19;1331;-42
2023/07/12 00:08:18;;;;;;;;;;;;;;;24.30;65.00;100810.53;7398616;19;1275;-42
2023/07/12 00:10:50;;;;;;;;;;;;;;;24.40;64.54;100817.44;7397289;19;1175;-42
2023/07/12 00:13:18;;;;;;;;;;;;;;;24.22;65.70;100817.63;7395449;19;1142;-42
2023/07/12 00:15:47;;;;;;;;;;;;;;;24.04;65.89;100810.72;7397071;19;1281;-42
2023/07/12 00:18:16;;;;;;;;;;;;;;;24.09;65.71;100811.03;7396912;19;1855;-42
2023/07/12 00:20:45;;;;;;;;;;;;;;;24.30;65.05;100805.97;7397578;19;1861;-42
2023/07/12 00:23:14;;;;;;;;;;;;;;;24.16;65.22;100804.81;7397575;19;1400;-42
2023/07/12 00:25:42;;;;;;;;;;;;;;;24.31;65.19;100823.03;7397629;19;1246;-42
2023/07/12 00:28:20;;;;;;;;;;;;;;;24.37;64.62;100811.53;7396601;19;1279;-42
2023/07/12 00:30:48;;;;;;;;;;;;;;;24.38;64.72;100816.78;7395974;19;1243;-42
2023/07/12 00:33:17;;;;;;;;;;;;;;;24.29;64.88;100806.13;7397312;19;1374;-42
2023/07/12 00:35:45;;;;;;;;;;;;;;;24.14;65.33;100809.53;7397354;19;1656;-42
2023/07/12 00:38:17;;;;;;;;;;;;;;;23.98;65.52;100818.47;7396096;19;1867;-42
2023/07/12 00:41:01;;;;;;;;;;;;;;;23.94;66.40;100798.19;7397225;19;1461;-42
2023/07/12 00:43:34;;;;;;;;;;;;;;;23.94;65.49;100813.56;7396694;19;1243;-42
2023/07/12 00:46:04;;;;;;;;;;;;;;;24.12;64.97;100808.00;7396147;19;1481;-42
2023/07/12 00:48:32;;;;;;;;;;;;;;;24.11;65.18;100817.94;7395991;19;1287;-42
2023/07/12 00:51:01;;;;;;;;;;;;;;;24.16;64.76;100804.81;7396961;19;1088;-42
2023/07/12 00:53:31;;;;;;;;;;;;;;;24.14;64.55;100804.13;7395955;19;1553;-42
2023/07/12 00:56:04;;;;;;;;;;;;;;;24.15;64.14;100800.44;7395740;19;1560;-42
2023/07/12 00:58:36;;;;;;;;;;;;;;;24.13;64.19;100815.97;7393931;19;1866;-42
2023/07/12 01:01:06;;;;;;;;;;;;;;;23.94;64.66;100811.72;7394574;19;1459;-42
2023/07/12 01:03:36;;;;;;;;;;;;;;;24.05;64.42;100821.31;7395220;19;1480;-42
2023/07/12 01:06:05;;;;;;;;;;;;;;;24.06;64.90;100831.13;7395490;19;1649;-42
2023/07/12 01:08:34;;;;;;;;;;;;;;;24.04;64.93;100808.84;7394273;19;1258;-42
2023/07/12 01:11:03;;;;;;;;;;;;;;;23.93;65.21;100814.56;7395099;19;1282;-42
2023/07/12 01:13:36;;;;;;;;;;;;;;;23.90;65.29;100813.06;7394818;19;1295;-42
2023/07/12 01:16:05;;;;;;;;;;;;;;;23.82;65.18;100805.78;7395428;19;1379;-42
2023/07/12 01:18:33;;;;;;;;;;;;;;;23.81;64.89;100804.09;7393509;19;1846;-42
2023/07/12 01:21:11;;;;;;;;;;;;;;;23.87;64.81;100812.53;7395690;19;1032;-42
2023/07/12 01:23:40;;;;;;;;;;;;;;;23.88;65.38;100820.47;7395049;19;1374;-42
2023/07/12 01:26:24;;;;;;;;;;;;;;;23.96;65.31;100817.78;7394674;19;1485;-42
2023/07/12 01:28:54;;;;;;;;;;;;;;;23.88;65.51;100819.66;7394178;19;1308;-42
2023/07/12 01:31:22;;;;;;;;;;;;;;;23.93;65.07;100817.28;7395318;19;1480;-42
2023/07/12 01:33:51;;;;;;;;;;;;;;;23.82;65.46;100826.56;7393750;19;1326;-42
2023/07/12 01:36:22;;;;;;;;;;;;;;;23.90;65.29;100814.91;7394934;19;1587;-42
2023/07/12 01:38:51;;;;;;;;;;;;;;;24.10;64.69;100842.47;7394529;19;1847;-42
2023/07/12 01:41:19;;;;;;;;;;;;;;;23.98;65.10;100848.19;7396351;19;1511;-42
2023/07/12 01:43:48;;;;;;;;;;;;;;;23.99;64.98;100854.41;7401129;19;1457;-42
2023/07/12 01:46:16;;;;;;;;;;;;;;;23.99;64.52;100863.38;7401883;19;1279;-42
2023/07/12 01:48:45;;;;;;;;;;;;;;;24.07;64.62;100864.41;7402686;19;1490;-42
2023/07/12 01:51:13;;;;;;;;;;;;;;;24.03;64.61;100866.56;7401904;19;1283;-42
2023/07/12 01:53:44;;;;;;;;;;;;;;;24.03;64.38;100858.47;7402601;19;1331;-42
2023/07/12 01:56:14;;;;;;;;;;;;;;;24.06;64.50;100871.66;7401759;19;1231;-42
2023/07/12 01:58:43;;;;;;;;;;;;;;;23.97;64.44;100859.13;7399468;19;1848;-42
2023/07/12 02:01:11;;;;;;;;;;;;;;;23.94;64.58;100879.22;7398880;19;1298;-42
2023/07/12 02:03:39;;;;;;;;;;;;;;;23.99;64.42;100871.50;7402065;19;1560;-42
2023/07/12 02:06:08;;;;;;;;;;;;;;;23.85;64.74;100863.16;7401618;19;1586;-42
2023/07/12 02:08:36;;;;;;;;;;;;;;;23.80;64.72;100880.72;7402756;19;1024;-42
2023/07/12 02:11:07;;;;;;;;;;;;;;;23.85;64.56;100896.41;7401642;19;1460;-42
2023/07/12 02:13:35;;;;;;;;;;;;;;;23.91;64.62;100884.13;7400509;19;1402;-42
2023/07/12 02:16:04;;;;;;;;;;;;;;;23.99;64.29;100886.84;7401317;19;1223;-42
2023/07/12 02:18:32;;;;;;;;;;;;;;;23.94;64.39;100879.22;7400858;19;1849;-42
2023/07/12 02:21:00;;;;;;;;;;;;;;;23.85;65.03;100873.97;7402396;19;1134;-42
2023/07/12 02:23:28;;;;;;;;;;;;;;;23.88;65.24;100887.16;7401264;19;1595;-42
2023/07/12 02:25:57;;;;;;;;;;;;;;;23.81;65.11;100900.47;7400771;19;1572;-42
2023/07/12 02:28:28;;;;;;;;;;;;;;;23.96;65.00;100908.78;7400889;19;1604;-42
2023/07/12 02:30:56;;;;;;;;;;;;;;;23.93;65.38;100903.69;7400161;19;1548;-42
2023/07/12 02:33:24;;;;;;;;;;;;;;;23.92;65.52;100904.72;7399742;19;1445;-42
2023/07/12 02:35:53;;;;;;;;;;;;;;;23.88;65.24;100869.09;7401018;19;1524;-42
2023/07/12 02:38:21;;;;;;;;;;;;;;;23.92;65.22;100885.81;7401846;19;1849;-42
2023/07/12 02:40:49;;;;;;;;;;;;;;;23.72;65.52;100888.78;7401010;19;1500;-42
2023/07/12 02:43:17;;;;;;;;;;;;;;;23.71;65.54;100911.34;7400587;19;2016;-42
2023/07/12 02:45:51;;;;;;;;;;;;;;;23.77;65.61;100932.34;7401841;19;1175;-42
2023/07/12 02:48:20;;;;;;;;;;;;;;;23.83;65.75;100930.84;7402055;19;1147;-42
2023/07/12 02:50:48;;;;;;;;;;;;;;;23.87;65.21;100918.69;7400859;19;1921;-43
2023/07/12 02:53:16;;;;;;;;;;;;;;;23.77;65.59;100924.25;7399317;19;1194;-42
2023/07/12 02:55:45;;;;;;;;;;;;;;;23.78;65.65;100907.03;7400534;19;1572;-42
2023/07/12 02:58:13;;;;;;;;;;;;;;;23.78;65.83;100908.91;7400082;19;1853;-42
2023/07/12 03:00:41;;;;;;;;;;;;;;;23.81;65.06;100931.03;7398487;19;1426;-42
2023/07/12 03:03:12;;;;;;;;;;;;;;;23.82;64.58;100946.22;7400677;19;1559;-42
2023/07/12 03:05:41;;;;;;;;;;;;;;;23.81;64.77;100960.75;7399205;19;1572;-42
2023/07/12 03:08:10;;;;;;;;;;;;;;;23.92;64.68;100951.47;7400320;19;1477;-42
2023/07/12 03:10:39;;;;;;;;;;;;;;;23.81;64.92;100951.78;7398889;19;1465;-42
2023/07/12 03:13:09;;;;;;;;;;;;;;;23.80;64.44;100940.13;7399488;19;1489;-42
2023/07/12 03:15:39;;;;;;;;;;;;;;;23.82;63.84;100946.22;7398241;19;1266;-42
2023/07/12 03:18:07;;;;;;;;;;;;;;;23.81;63.93;100957.16;7399900;19;1272;-42
2023/07/12 03:20:38;;;;;;;;;;;;;;;23.84;63.37;100950.63;7399954;19;1514;-42
2023/07/12 03:23:06;;;;;;;;;;;;;;;23.84;63.10;100931.72;7399835;19;1334;-42
2023/07/12 03:25:35;;;;;;;;;;;;;;;23.92;63.07;100943.38;7398856;19;1460;-42
2023/07/12 03:28:03;;;;;;;;;;;;;;;23.90;62.89;100948.09;7398981;19;1533;-42
2023/07/12 03:30:31;;;;;;;;;;;;;;;23.81;63.27;100954.47;7398128;19;1279;-42
2023/07/12 03:32:59;;;;;;;;;;;;;;;23.93;63.10;100946.91;7400172;19;1220;-42
2023/07/12 03:35:29;;;;;;;;;;;;;;;23.98;62.54;100950.00;7399426;19;1121;-42
2023/07/12 03:38:00;;;;;;;;;;;;;;;24.07;62.20;100954.38;7399043;19;1581;-42
2023/07/12 03:40:28;;;;;;;;;;;;;;;23.97;62.76;100956.38;7396895;19;1857;-42
2023/07/12 03:42:56;;;;;;;;;;;;;;;23.96;62.94;100958.25;7399051;19;1151;-42
2023/07/12 03:45:25;;;;;;;;;;;;;;;24.10;62.35;100978.38;7398534;19;1547;-42
2023/07/12 03:47:53;;;;;;;;;;;;;;;24.04;62.04;100987.16;7398369;19;1627;-42
2023/07/12 03:50:21;;;;;;;;;;;;;;;23.92;62.55;100964.16;7398128;19;1556;-42
2023/07/12 03:52:50;;;;;;;;;;;;;;;23.92;62.24;100977.66;7397669;19;1211;-42
2023/07/12 03:55:21;;;;;;;;;;;;;;;23.88;62.07;100977.13;7397327;19;1196;-42
2023/07/12 03:57:49;;;;;;;;;;;;;;;23.85;62.40;100995.50;7397041;19;1473;-42
2023/07/12 04:00:18;;;;;;;;;;;;;;;23.88;62.35;101008.69;7396428;19;1855;-42
2023/07/12 04:02:46;;;;;;;;;;;;;;;23.91;62.64;100995.69;7397761;19;1480;-42
2023/07/12 04:05:14;;;;;;;;;;;;;;;23.95;62.35;100993.53;7396105;19;1938;-42
2023/07/12 04:07:43;;;;;;;;;;;;;;;23.87;62.89;100998.88;7397007;19;1639;-42
2023/07/12 04:10:11;;;;;;;;;;;;;;;23.99;62.68;100994.88;7397190;19;1438;-42
2023/07/12 04:12:42;;;;;;;;;;;;;;;23.89;63.08;100988.78;7393705;19;1505;-43
2023/07/12 04:15:11;;;;;;;;;;;;;;;24.08;62.62;100993.06;7398125;19;1192;-42
2023/07/12 04:17:39;;;;;;;;;;;;;;;24.22;62.39;100987.88;7397487;19;1158;-42
2023/07/12 04:20:08;;;;;;;;;;;;;;;24.20;62.39;101002.56;7396926;19;1856;-42
2023/07/12 04:22:36;;;;;;;;;;;;;;;24.32;62.47;100997.69;7397308;19;1238;-43
2023/07/12 04:25:06;;;;;;;;;;;;;;;24.36;62.48;100997.19;7397666;19;1539;-42
2023/07/12 04:27:37;;;;;;;;;;;;;;;24.31;62.56;101007.69;7394362;19;1425;-42
2023/07/12 04:30:09;;;;;;;;;;;;;;;24.12;62.54;101016.88;7394917;19;1125;-42
2023/07/12 04:32:37;;;;;;;;;;;;;;;24.09;62.65;101011.78;7394945;19;1152;-42
2023/07/12 04:35:06;;;;;;;;;;;;;;;24.03;62.99;101012.47;7395999;19;1750;-42
2023/07/12 04:37:34;;;;;;;;;;;;;;;24.17;62.58;101011.00;7395236;19;1825;-42
2023/07/12 04:40:03;;;;;;;;;;;;;;;24.16;62.80;101012.00;7391607;19;1867;-42
2023/07/12 04:42:32;;;;;;;;;;;;;;;24.25;62.53;101020.97;7391582;19;1367;-43
2023/07/12 04:45:00;;;;;;;;;;;;;;;24.10;62.56;101012.66;7391571;19;1265;-42
2023/07/12 04:47:31;;;;;;;;;;;;;;;24.09;62.65;101017.19;7393159;19;1228;-42
2023/07/12 04:49:59;;;;;;;;;;;;;;;24.12;62.89;101032.25;7393765;19;1679;-42
2023/07/12 04:52:27;;;;;;;;;;;;;;;24.04;62.42;101022.28;7392926;19;1665;-43
2023/07/12 04:54:58;;;;;;;;;;;;;;;24.08;62.89;101014.69;7397282;19;1703;-42
2023/07/12 04:57:27;;;;;;;;;;;;;;;24.30;62.13;101013.25;7393132;19;1360;-42
2023/07/12 04:59:55;;;;;;;;;;;;;;;24.20;62.22;101018.78;7390228;19;1817;-51
2023/07/12 05:02:24;;;;;;;;;;;;;;;24.17;62.66;101033.47;7394222;19;1224;-42
2023/07/12 05:04:54;;;;;;;;;;;;;;;24.18;62.42;101037.84;7393977;19;1356;-43
2023/07/12 05:07:23;;;;;;;;;;;;;;;24.30;62.24;101041.09;7395800;19;1457;-44
2023/07/12 05:09:51;;;;;;;;;;;;;;;24.32;62.47;101043.66;7394686;19;1564;-44
2023/07/12 05:12:20;;;;;;;;;;;;;;;24.33;62.45;101029.97;7396602;19;1032;-43
2023/07/12 05:14:48;;;;;;;;;;;;;;;24.35;62.35;101033.38;7394512;19;1822;-44
2023/07/12 05:17:16;;;;;;;;;;;;;;;24.31;62.39;101036.53;7402143;19;1861;-44
2023/07/12 05:19:44;;;;;;;;;;;;;;;24.31;62.32;101031.13;7399054;19;2125;-45
2023/07/12 05:22:15;;;;;;;;;;;;;;;24.40;62.28;101030.16;7402633;19;1481;-44
2023/07/12 05:24:44;;;;;;;;;;;;;;;24.38;62.31;101034.88;7401598;19;1282;-44
2023/07/12 05:27:12;;;;;;;;;;;;;;;24.43;62.05;101019.00;7401977;19;1200;-44
2023/07/12 05:29:41;;;;;;;;;;;;;;;24.41;62.20;101031.84;7401943;19;1863;-44
2023/07/12 05:32:09;;;;;;;;;;;;;;;24.47;62.20;101036.59;7400756;19;1184;-44
2023/07/12 05:34:39;;;;;;;;;;;;;;;24.48;62.23;101013.13;7401764;19;1564;-44
2023/07/12 05:37:07;;;;;;;;;;;;;;;24.56;62.22;101018.56;7402632;19;1051;-44
2023/07/12 05:39:38;;;;;;;;;;;;;;;24.52;62.02;101023.44;7400564;19;1889;-45
2023/07/12 05:42:07;;;;;;;;;;;;;;;24.55;62.01;101028.53;7401525;19;1188;-44
2023/07/12 05:44:35;;;;;;;;;;;;;;;24.53;62.15;101029.69;7402181;19;1521;-53
2023/07/12 05:47:04;;;;;;;;;;;;;;;24.47;62.11;101014.97;7397964;19;1943;-44
2023/07/12 05:49:32;;;;;;;;;;;;;;;24.62;62.02;101028.72;7400437;19;1711;-44
2023/07/12 05:52:01;;;;;;;;;;;;;;;24.70;61.59;101014.38;7399818;19;1390;-44
2023/07/12 05:54:29;;;;;;;;;;;;;;;24.68;62.12;101022.63;7402195;19;1710;-44
2023/07/12 05:57:00;;;;;;;;;;;;;;;24.64;62.48;101032.09;7398441;19;1730;-43
2023/07/12 05:59:28;;;;;;;;;;;;;;;24.69;61.93;101016.22;7399955;19;1957;-44
2023/07/12 06:01:57;;;;;;;;;;;;;;;24.65;62.12;101019.41;7400435;19;1580;-44
2023/07/12 06:04:25;;;;;;;;;;;;;;;24.69;62.41;101037.00;7402554;19;954;-44
2023/07/12 06:06:53;;;;;;;;;;;;;;;24.65;62.61;101027.53;7400582;19;1536;-45
2023/07/12 06:09:21;;;;;;;;;;;;;;;24.64;62.90;101017.75;7399803;19;1559;-43
2023/07/12 06:11:50;;;;;;;;;;;;;;;24.77;62.46;101015.38;7400303;19;1217;-43
2023/07/12 06:14:21;;;;;;;;;;;;;;;24.84;62.40;101010.97;7396927;19;1190;-43
2023/07/12 06:16:49;;;;;;;;;;;;;;;24.97;61.95;101005.94;7398794;19;1532;-44
2023/07/12 06:19:17;;;;;;;;;;;;;;;24.79;62.96;101014.22;7398080;19;1888;-44
2023/07/12 06:21:45;;;;;;;;;;;;;;;24.89;62.53;101008.63;7396647;19;1461;-43
2023/07/12 06:24:14;;;;;;;;;;;;;;;24.84;63.42;100994.75;7397044;19;1370;-42
2023/07/12 06:26:42;;;;;;;;;;;;;;;24.96;62.69;100990.69;7389990;19;1482;-42
2023/07/12 06:29:10;;;;;;;;;;;;;;;24.83;63.00;100992.22;7394687;19;1460;-44
2023/07/12 06:31:41;;;;;;;;;;;;;;;24.76;63.53;101000.16;7399635;19;1003;-42
2023/07/12 06:34:10;;;;;;;;;;;;;;;24.84;63.22;100983.09;7398677;19;1521;-42
2023/07/12 06:36:39;;;;;;;;;;;;;;;24.87;63.32;100989.03;7400745;19;1775;-42
2023/07/12 06:39:07;;;;;;;;;;;;;;;24.84;63.21;100980.41;7398866;19;1414;-42
2023/07/12 06:41:35;;;;;;;;;;;;;;;24.85;63.30;100974.81;7395788;19;1854;-42
2023/07/12 06:44:04;;;;;;;;;;;;;;;24.84;63.40;100970.41;7398891;19;1508;-42
2023/07/12 06:46:32;;;;;;;;;;;;;;;24.86;63.53;100973.78;7400419;19;1747;-42
2023/07/12 06:49:03;;;;;;;;;;;;;;;24.92;63.47;100991.22;7398251;19;1401;-42
2023/07/12 06:51:31;;;;;;;;;;;;;;;24.96;63.14;100971.75;7398294;19;1503;-42
2023/07/12 06:53:59;;;;;;;;;;;;;;;24.99;63.45;100993.06;7398658;19;1461;-42
2023/07/12 06:56:28;;;;;;;;;;;;;;;24.93;63.45;100982.94;7398312;19;1465;-42
2023/07/12 06:58:56;;;;;;;;;;;;;;;24.93;63.33;100991.03;7395539;19;1892;-42
2023/07/12 07:01:24;;;;;;;;;;;;;;;25.00;63.47;100989.34;7396321;19;1871;-42
2023/07/12 07:03:52;;;;;;;;;;;;;;;25.07;63.34;100977.81;7398172;19;1616;-42
2023/07/12 07:06:24;;;;;;;;;;;;;;;25.00;63.45;100983.94;7398819;19;1216;-42
2023/07/12 07:08:53;;;;;;;;;;;;;;;24.99;63.55;100976.84;7397914;19;1247;-42
2023/07/12 07:11:21;;;;;;;;;;;;;;;25.04;63.55;100979.03;7398115;19;1241;-42
2023/07/12 07:13:50;;;;;;;;;;;;;;;25.07;63.41;100976.00;7395174;19;1528;-42
2023/07/12 07:16:18;;;;;;;;;;;;;;;25.20;63.24;100980.88;7397720;19;1289;-42
2023/07/12 07:18:49;;;;;;;;;;;;;;;25.10;63.43;100981.03;7396262;19;1347;-42
2023/07/12 07:21:17;;;;;;;;;;;;;;;25.14;63.24;100985.09;7398143;19;1845;-42
2023/07/12 07:23:48;;;;;;;;;;;;;;;25.13;63.36;100982.59;7399565;19;1082;-42
2023/07/12 07:26:17;;;;;;;;;;;;;;;25.10;63.86;100988.31;7399089;19;1839;-43
2023/07/12 07:28:45;;;;;;;;;;;;;;;25.07;63.73;100978.69;7397366;19;1885;-42
2023/07/12 07:31:14;;;;;;;;;;;;;;;25.07;63.93;100991.34;7396448;19;1842;-42
2023/07/12 07:33:42;;;;;;;;;;;;;;;25.11;63.91;100984.59;7396646;19;1742;-42
2023/07/12 07:36:13;;;;;;;;;;;;;;;25.09;63.82;100992.03;7395851;19;1526;-42
2023/07/12 07:38:41;;;;;;;;;;;;;;;25.08;63.86;100998.47;7394838;19;1293;-42
2023/07/12 07:41:14;;;;;;;;;;;;;;;25.06;63.75;100997.81;7395891;19;1846;-42
2023/07/12 07:43:44;;;;;;;;;;;;;;;25.07;63.88;100989.53;7397061;19;1777;-43
2023/07/12 07:46:12;;;;;;;;;;;;;;;25.08;64.10;100993.06;7397570;19;1774;-53
2023/07/12 07:48:41;;;;;;;;;;;;;;;25.06;64.17;100982.41;7397048;19;1450;-42
2023/07/12 07:51:09;;;;;;;;;;;;;;;25.11;64.09;100992.69;7396348;19;1964;-42
2023/07/12 07:53:37;;;;;;;;;;;;;;;25.07;64.17;100983.25;7398232;19;961;-42
2023/07/12 07:56:07;;;;;;;;;;;;;;;25.08;64.28;100995.78;7397014;19;1813;-43
2023/07/12 07:58:38;;;;;;;;;;;;;;;25.06;64.21;100986.97;7396300;19;1905;-42
2023/07/12 08:01:06;;;;;;;;;;;;;;;25.09;64.06;100973.09;7394464;19;1852;-42
2023/07/12 08:03:35;;;;;;;;;;;;;;;25.09;64.17;100990.19;7397193;19;1805;-42
2023/07/12 08:06:03;;;;;;;;;;;;;;;25.11;64.10;100990.88;7396683;19;1398;-42
2023/07/12 08:08:33;;;;;;;;;;;;;;;25.12;63.99;101005.22;7397399;19;1722;-42
2023/07/12 08:11:02;;;;;;;;;;;;;;;25.09;63.95;100981.22;7396561;19;1391;-42
2023/07/12 08:13:30;;;;;;;;;;;;;;;25.12;64.12;100991.72;7394858;19;1532;-42
2023/07/12 08:16:01;;;;;;;;;;;;;;;24.57;64.02;100890.47;7394684;19;1386;-42
2023/07/12 08:18:29;;;;;;;;;;;;;;;25.12;63.95;100991.72;7396159;19;1130;-42
2023/07/12 08:20:58;;;;;;;;;;;;;;;25.13;64.23;100991.53;7396136;19;1845;-42
2023/07/12 08:23:27;;;;;;;;;;;;;;;25.13;63.94;100990.72;7396857;19;1159;-42
2023/07/12 08:25:56;;;;;;;;;;;;;;;25.13;63.87;100999.66;7396838;19;1548;-42
2023/07/12 08:28:24;;;;;;;;;;;;;;;25.16;64.04;101004.72;7395720;19;1266;-42
2023/07/12 08:30:52;;;;;;;;;;;;;;;25.16;64.19;100998.47;7394792;19;1585;-42
2023/07/12 08:33:23;;;;;;;;;;;;;;;25.19;64.50;100979.19;7396586;19;1569;-42
2023/07/12 08:35:52;;;;;;;;;;;;;;;25.16;64.45;100991.19;7395614;19;1144;-42
2023/07/12 08:38:20;;;;;;;;;;;;;;;25.19;64.29;100998.13;7396755;19;1476;-42
2023/07/12 08:40:50;;;;;;;;;;;;;;;25.19;64.42;100995.44;7394462;19;1850;-42
2023/07/12 08:43:19;;;;;;;;;;;;;;;25.20;64.19;100988.97;7394540;19;1376;-42
2023/07/12 08:45:49;;;;;;;;;;;;;;;25.25;64.18;100970.41;7395944;19;1256;-43
2023/07/12 08:48:19;;;;;;;;;;;;;;;25.28;64.30;100972.75;7396002;19;1266;-42
2023/07/12 08:50:51;;;;;;;;;;;;;;;25.24;64.40;100970.56;7394438;19;1255;-42
2023/07/12 08:53:21;;;;;;;;;;;;;;;25.19;64.45;100971.06;7397561;19;1038;-42
2023/07/12 08:55:49;;;;;;;;;;;;;;;25.22;64.42;100973.44;7394431;19;1804;-42
2023/07/12 08:58:24;;;;;;;;;;;;;;;25.22;64.57;100962.63;7396243;19;1596;-42
2023/07/12 09:00:56;;;;;;;;;;;;;;;25.26;64.28;100968.53;7393611;19;1868;-42
2023/07/12 09:03:25;;;;;;;;;;;;;;;25.29;64.50;100982.59;7394839;19;1469;-42
2023/07/12 09:05:55;;;;;;;;;;;;;;;25.32;64.22;100976.81;7396363;19;1722;-42
2023/07/12 09:08:27;;;;;;;;;;;;;;;25.22;64.40;100965.34;7396377;19;1131;-42
2023/07/12 09:10:57;;;;;;;;;;;;;;;25.20;64.42;100965.47;7392929;19;1480;-42
2023/07/12 09:13:33;;;;;;;;;;;;;;;25.22;64.90;100964.50;7394054;19;1755;-42
2023/07/12 09:16:01;;;;;;;;;;;;;;;25.16;64.74;100961.41;7394598;19;1820;-42
2023/07/12 09:18:32;;;;;;;;;;;;;;;25.17;64.66;100951.47;7394329;19;963;-42
2023/07/12 09:21:12;;;;;;;;;;;;;;;25.18;64.78;100963.97;7393614;19;1826;-42
2023/07/12 09:23:41;;;;;;;;;;;;;;;25.18;64.97;100959.38;7393528;19;1293;-42
2023/07/12 09:26:12;;;;;;;;;;;;;;;25.08;65.58;100950.59;7392028;19;1386;-44
2023/07/12 09:28:40;;;;;;;;;;;;;;;25.08;65.45;100957.88;7391848;19;1506;-44
2023/07/12 09:31:15;;;;;;;;;;;;;;;25.23;65.13;100950.78;7394115;19;1322;-44
2023/07/12 09:33:44;;;;;;;;;;;;;;;25.44;64.56;100942.09;7395560;19;1545;-44
2023/07/12 09:36:17;;;;;;;;;;;;;;;25.50;64.51;100949.53;7393926;19;1512;-44
2023/07/12 09:38:46;;;;;;;;;;;;;;;25.34;64.51;100942.28;7394053;19;1278;-44
2023/07/12 09:41:18;;;;;;;;;;;;;;;25.37;65.05;100950.06;7391321;19;1879;-42
2023/07/12 09:43:49;;;;;;;;;;;;;;;25.34;64.97;100941.44;7391000;19;1458;-42
2023/07/12 09:46:22;;;;;;;;;;;;;;;25.27;64.85;100946.72;7393527;19;1465;-42
2023/07/12 09:48:52;;;;;;;;;;;;;;;25.23;64.97;100939.97;7393159;19;1370;-42
2023/07/12 09:51:29;;;;;;;;;;;;;;;25.27;64.71;100935.91;7394239;19;1610;-42
2023/07/12 09:54:00;;;;;;;;;;;;;;;25.24;65.21;100952.47;7393122;19;1148;-42
2023/07/12 09:56:35;;;;;;;;;;;;;;;25.19;65.04;100925.06;7392642;19;1547;-42
2023/07/12 09:59:06;;;;;;;;;;;;;;;25.20;65.17;100896.97;7392781;19;1611;-42
2023/07/12 10:01:38;;;;;;;;;;;;;;;25.17;65.48;100902.75;7390530;19;1884;-42
2023/07/12 10:04:14;;;;;;;;;;;;;;;25.15;65.38;100910.19;7397916;19;1616;-42
2023/07/12 10:06:49;;;;;;;;;;;;;;;25.17;65.52;100898.16;7400535;19;1525;-42
2023/07/12 10:09:20;;;;;;;;;;;;;;;25.18;65.52;100958.53;7401394;19;1237;-42
2023/07/12 10:11:51;;;;;;;;;;;;;;;25.15;65.19;100900.19;7397947;19;1543;-42
2023/07/12 10:14:21;;;;;;;;;;;;;;;25.16;65.32;100895.63;7400381;19;1576;-42
2023/07/12 10:16:51;;;;;;;;;;;;;;;25.17;65.42;100902.75;7399461;19;1739;-42
2023/07/12 10:19:22;;;;;;;;;;;;;;;25.18;65.34;100907.13;7399257;19;1813;-42
2023/07/12 10:21:55;;;;;;;;;;;;;;;25.16;65.34;100890.22;7397417;19;1847;-42
2023/07/12 10:24:27;;;;;;;;;;;;;;;25.18;65.34;100899.84;7401670;19;926;-42
2023/07/12 10:26:55;;;;;;;;;;;;;;;25.18;65.30;100888.19;7399846;19;1928;-42
2023/07/12 10:29:26;;;;;;;;;;;;;;;25.19;65.57;100885.31;7399902;19;1716;-42
2023/07/12 10:31:58;;;;;;;;;;;;;;;25.18;65.45;100870.06;7399113;19;1184;-42
2023/07/12 10:34:28;;;;;;;;;;;;;;;25.20;65.49;100878.84;7398988;19;1284;-42
2023/07/12 10:36:59;;;;;;;;;;;;;;;25.16;65.40;100879.38;7399585;19;1730;-42
2023/07/12 10:39:29;;;;;;;;;;;;;;;25.16;65.51;100874.81;7399830;19;1003;-42
2023/07/12 10:41:59;;;;;;;;;;;;;;;25.18;65.48;100880.91;7397428;19;1847;-42
2023/07/12 10:44:29;;;;;;;;;;;;;;;25.16;65.36;100873.97;7398762;19;1453;-42
2023/07/12 10:46:59;;;;;;;;;;;;;;;25.17;65.50;100881.09;7399182;19;1277;-42
2023/07/12 10:49:41;;;;;;;;;;;;;;;25.17;65.50;100875.69;7398768;19;1219;-42
2023/07/12 10:52:21;;;;;;;;;;;;;;;25.15;65.42;100880.41;7396401;19;1659;-42
2023/07/12 10:55:06;;;;;;;;;;;;;;;25.20;65.76;100883.44;7397700;19;1184;-42
2023/07/12 10:57:47;;;;;;;;;;;;;;;25.23;65.79;100884.97;7396549;19;1137;-42
2023/07/12 11:00:30;;;;;;;;;;;;;;;25.23;65.79;100869.59;7396087;19;1152;-42
2023/07/12 11:03:16;;;;;;;;;;;;;;;25.27;65.46;100862.81;7392793;19;1845;-42
2023/07/12 11:05:47;;;;;;;;;;;;;;;25.23;65.66;100891.25;7398092;19;1286;-42
2023/07/12 11:08:30;;;;;;;;;;;;;;;25.25;65.74;100882.94;7398847;19;1255;-42
2023/07/12 11:11:01;;;;;;;;;;;;;;;25.30;65.61;100883.28;7399003;19;1358;-42
2023/07/12 11:13:32;;;;;;;;;;;;;;;25.25;65.72;100880.22;7394705;19;1608;-42
2023/07/12 11:16:03;;;;;;;;;;;;;;;25.26;65.86;100884.63;7395744;19;1417;-42
2023/07/12 11:18:34;;;;;;;;;;;;;;;25.21;66.02;100874.31;7399297;19;1723;-42
2023/07/12 11:21:04;;;;;;;;;;;;;;;25.18;66.16;100867.38;7400400;19;1843;-42
2023/07/12 11:23:33;;;;;;;;;;;;;;;25.22;66.05;100877.88;7397821;19;1902;-42
2023/07/12 11:26:07;;;;;;;;;;;;;;;25.19;66.21;100871.78;7397230;19;1726;-43
2023/07/12 11:28:43;;;;;;;;;;;;;;;25.16;66.07;100853.16;7397820;19;1464;-42
2023/07/12 11:31:17;;;;;;;;;;;;;;;25.20;66.10;100859.06;7398166;19;1587;-42
2023/07/12 11:33:48;;;;;;;;;;;;;;;25.18;66.40;100861.13;7395391;19;1482;-42
2023/07/12 11:36:20;;;;;;;;;;;;;;;25.18;66.07;100861.13;7395982;19;1460;-42
2023/07/12 11:38:49;;;;;;;;;;;;;;;25.23;66.33;100868.72;7396640;19;1271;-42
2023/07/12 11:41:21;;;;;;;;;;;;;;;25.27;65.96;100857.41;7394531;19;1868;-42
2023/07/12 11:43:49;;;;;;;;;;;;;;;25.23;66.29;100847.94;7395585;19;1314;-42
2023/07/12 11:46:18;;;;;;;;;;;;;;;25.30;66.07;100857.03;7396998;19;1478;-42
2023/07/12 11:48:51;;;;;;;;;;;;;;;25.34;66.05;100850.25;7397451;19;1433;-42
2023/07/12 11:51:23;;;;;;;;;;;;;;;25.31;66.61;100866.84;7393502;19;1180;-42
2023/07/12 11:53:56;;;;;;;;;;;;;;;25.56;66.02;100872.16;7395836;19;1247;-42
2023/07/12 11:56:27;;;;;;;;;;;;;;;25.39;66.27;100858.72;7395572;19;1566;-42
2023/07/12 11:58:56;;;;;;;;;;;;;;;25.47;66.24;100838.03;7393909;19;1576;-42
2023/07/12 12:01:24;;;;;;;;;;;;;;;25.37;66.24;100839.09;7394307;19;1863;-42
2023/07/12 12:03:53;;;;;;;;;;;;;;;25.45;66.19;100845.50;7392246;19;1224;-42
2023/07/12 12:06:22;;;;;;;;;;;;;;;25.38;66.43;100839.91;7397110;19;1631;-42
2023/07/12 12:08:54;;;;;;;;;;;;;;;25.49;66.05;100834.13;7396895;19;1239;-42
2023/07/12 12:11:22;;;;;;;;;;;;;;;25.61;65.78;100834.56;7395263;19;1551;-42
2023/07/12 12:13:54;;;;;;;;;;;;;;;25.49;66.29;100841.41;7394363;19;1529;-42
2023/07/12 12:16:24;;;;;;;;;;;;;;;25.38;66.44;100842.63;7396005;19;1543;-42
2023/07/12 12:18:54;;;;;;;;;;;;;;;25.39;66.45;100836.22;7395637;19;1137;-42
2023/07/12 12:21:24;;;;;;;;;;;;;;;25.38;66.71;100846.16;7395506;19;1857;-42
2023/07/12 12:23:54;;;;;;;;;;;;;;;25.31;67.29;100841.66;7396454;19;1242;-42
2023/07/12 12:26:23;;;;;;;;;;;;;;;25.21;67.56;100825.59;7394613;19;1579;-42
2023/07/12 12:29:00;;;;;;;;;;;;;;;25.13;67.81;100828.34;7396113;19;1651;-42
2023/07/12 12:31:29;;;;;;;;;;;;;;;25.11;67.74;100835.75;7395861;19;1480;-42
2023/07/12 12:34:04;;;;;;;;;;;;;;;25.06;68.04;100824.63;7395082;19;1481;-42
2023/07/12 12:36:35;;;;;;;;;;;;;;;25.09;67.81;100840.50;7395170;19;1551;-42
2023/07/12 12:39:06;;;;;;;;;;;;;;;25.11;67.86;100831.22;7395163;19;1624;-42
2023/07/12 12:41:36;;;;;;;;;;;;;;;25.30;67.62;100827.25;7392784;19;1856;-43
2023/07/12 12:44:11;;;;;;;;;;;;;;;25.23;67.30;100826.28;7393764;19;1580;-42
2023/07/12 12:46:40;;;;;;;;;;;;;;;25.27;67.24;100826.75;7392627;19;1326;-42
2023/07/12 12:49:18;;;;;;;;;;;;;;;25.23;67.69;100823.59;7393215;19;1476;-42
2023/07/12 12:51:46;;;;;;;;;;;;;;;25.31;67.34;100818.13;7394090;19;1216;-42
2023/07/12 12:54:15;;;;;;;;;;;;;;;25.23;66.97;100814.59;7390194;19;1179;-42
2023/07/12 12:56:43;;;;;;;;;;;;;;;25.09;67.75;100829.69;7392000;19;1579;-42
2023/07/12 12:59:15;;;;;;;;;;;;;;;25.03;67.21;100817.72;7393396;19;1220;-42
2023/07/12 13:01:43;;;;;;;;;;;;;;;24.93;66.50;100800.81;7391712;19;1853;-42